Time;durP1;ratioP1;P1;durP2;ratioP2;P2;SDS_P1;SDS_P2;PMS_P1;PMS_P2;Temp;Humidity;BMP_temperature;BMP_pressure;BME280_temperature;BME280_humidity;BME280_pressure;Samples;Min_cycle;Max_cycle;Signal;HPM_P1;HPM_P2
2023/06/12 00:01:40;;;;;;;4.47;1.60;;;;;;;;;;5115024;28;20233;-63
2023/06/12 00:04:07;;;;;;;1.40;1.30;;;;;;;;;;5114851;28;20629;-61
2023/06/12 00:06:35;;;;;;;3.38;1.58;;;;;;;;;;5114950;28;20283;-63
2023/06/12 00:09:04;;;;;;;3.50;1.77;;;;;;;;;;5115293;28;20205;-63
2023/06/12 00:11:31;;;;;;;4.07;1.70;;;;;;;;;;5114620;28;20712;-62
2023/06/12 00:13:59;;;;;;;2.38;1.55;;;;;;;;;;5114740;28;20198;-63
2023/06/12 00:16:27;;;;;;;2.42;1.92;;;;;;;;;;5114749;28;20258;-63
2023/06/12 00:18:54;;;;;;;2.92;1.67;;;;;;;;;;5114524;28;20198;-62
2023/06/12 00:21:23;;;;;;;1.88;1.52;;;;;;;;;;5114688;28;20732;-62
2023/06/12 00:23:50;;;;;;;4.90;1.80;;;;;;;;;;5114692;28;20209;-62
2023/06/12 00:26:17;;;;;;;2.67;1.52;;;;;;;;;;5114591;28;20225;-62
2023/06/12 00:28:45;;;;;;;1.85;1.42;;;;;;;;;;5114513;28;20218;-62
2023/06/12 00:31:12;;;;;;;2.78;1.73;;;;;;;;;;5114326;28;20202;-62
2023/06/12 00:33:41;;;;;;;1.70;1.40;;;;;;;;;;5113835;28;20601;-62
2023/06/12 00:36:08;;;;;;;1.77;1.20;;;;;;;;;;5114579;28;20254;-62
2023/06/12 00:38:35;;;;;;;3.83;1.92;;;;;;;;;;5114433;28;20208;-61
2023/06/12 00:41:03;;;;;;;2.65;1.30;;;;;;;;;;5114272;28;20550;-62
2023/06/12 00:43:30;;;;;;;4.25;1.50;;;;;;;;;;5096244;28;20206;-62
2023/06/12 00:45:57;;;;;;;2.80;1.77;;;;;;;;;;5114159;28;20229;-62
2023/06/12 00:48:25;;;;;;;4.50;2.22;;;;;;;;;;5096315;28;20255;-62
2023/06/12 00:50:53;;;;;;;1.92;1.50;;;;;;;;;;5096474;28;20243;-61
2023/06/12 00:53:20;;;;;;;3.63;1.50;;;;;;;;;;5130181;27;20198;-62
2023/06/12 00:55:47;;;;;;;1.27;1.17;;;;;;;;;;5096114;28;20213;-62
2023/06/12 00:58:14;;;;;;;5.43;1.95;;;;;;;;;;5129010;27;20228;-62
2023/06/12 01:00:43;;;;;;;5.00;1.90;;;;;;;;;;5116145;28;20205;-62
2023/06/12 01:03:13;;;;;;;1.90;1.30;;;;;;;;;;5116255;28;20225;-61
2023/06/12 01:05:43;;;;;;;2.38;1.50;;;;;;;;;;5134708;28;20193;-61
2023/06/12 01:08:16;;;;;;;2.20;1.50;;;;;;;;;;5099856;28;20584;-62
2023/06/12 01:10:46;;;;;;;1.33;1.17;;;;;;;;;;5116489;28;20276;-61
2023/06/12 01:13:16;;;;;;;2.88;1.60;;;;;;;;;;5134366;28;20208;-61
2023/06/12 01:15:44;;;;;;;2.75;1.70;;;;;;;;;;5116091;28;20208;-61
2023/06/12 01:18:11;;;;;;;5.00;1.40;;;;;;;;;;5134702;28;20235;-62
2023/06/12 01:20:40;;;;;;;1.90;1.50;;;;;;;;;;5116021;28;20249;-61
2023/06/12 01:23:26;;;;;;;1.92;1.52;;;;;;;;;;5116275;28;20262;-62
2023/06/12 01:26:13;;;;;;;2.78;1.90;;;;;;;;;;5115733;28;20229;-62
2023/06/12 01:29:09;;;;;;;3.65;2.00;;;;;;;;;;5115802;28;20190;-61
2023/06/12 01:31:50;;;;;;;5.22;1.45;;;;;;;;;;5108311;28;20217;-62
2023/06/12 01:34:20;;;;;;;5.40;1.50;;;;;;;;;;5098077;28;20201;-62
2023/06/12 01:36:53;;;;;;;3.05;1.75;;;;;;;;;;5099426;28;20197;-62
2023/06/12 01:39:21;;;;;;;4.95;1.90;;;;;;;;;;5115941;28;20198;-62
2023/06/12 01:41:49;;;;;;;2.75;1.60;;;;;;;;;;5115687;28;20205;-62
2023/06/12 01:44:20;;;;;;;3.47;1.90;;;;;;;;;;5099156;27;20205;-61
2023/06/12 01:46:47;;;;;;;1.60;1.40;;;;;;;;;;5119542;27;20710;-62
2023/06/12 01:49:14;;;;;;;1.63;1.30;;;;;;;;;;5119487;27;20223;-62
2023/06/12 01:51:44;;;;;;;2.58;1.52;;;;;;;;;;5119420;27;20204;-61
2023/06/12 01:54:11;;;;;;;3.60;1.50;;;;;;;;;;5119368;27;20284;-61
2023/06/12 01:56:38;;;;;;;2.08;1.40;;;;;;;;;;5119392;27;20544;-61
2023/06/12 01:59:05;;;;;;;2.85;1.65;;;;;;;;;;5119191;27;20206;-61
2023/06/12 02:01:38;;;;;;;2.35;1.50;;;;;;;;;;5086058;27;20229;-61
2023/06/12 02:04:06;;;;;;;1.90;1.50;;;;;;;;;;5119219;27;20546;-61
2023/06/12 02:06:33;;;;;;;1.73;1.25;;;;;;;;;;5119213;27;20233;-60
2023/06/12 02:09:00;;;;;;;1.75;1.40;;;;;;;;;;5137419;27;20227;-61
2023/06/12 02:11:28;;;;;;;7.88;1.85;;;;;;;;;;5119138;27;20198;-61
2023/06/12 02:13:55;;;;;;;6.05;1.80;;;;;;;;;;5119253;27;20624;-61
2023/06/12 02:16:23;;;;;;;8.02;1.98;;;;;;;;;;5137118;27;20209;-61
2023/06/12 02:18:51;;;;;;;3.67;1.85;;;;;;;;;;5118897;27;20201;-61
2023/06/12 02:21:19;;;;;;;6.93;1.80;;;;;;;;;;5137173;27;20205;-61
2023/06/12 02:23:46;;;;;;;2.33;1.50;;;;;;;;;;5119052;27;20198;-61
2023/06/12 02:26:18;;;;;;;3.17;1.70;;;;;;;;;;5119076;27;20218;-61
2023/06/12 02:28:47;;;;;;;4.63;1.70;;;;;;;;;;5118622;27;20201;-60
2023/06/12 02:31:14;;;;;;;4.32;2.03;;;;;;;;;;5102021;27;20210;-61
2023/06/12 02:33:41;;;;;;;4.65;1.58;;;;;;;;;;5118669;27;20280;-61
2023/06/12 02:36:09;;;;;;;1.92;1.60;;;;;;;;;;5137100;27;20205;-61
2023/06/12 02:38:36;;;;;;;3.50;1.60;;;;;;;;;;5118702;27;20201;-61
2023/06/12 02:41:10;;;;;;;3.85;2.10;;;;;;;;;;5118753;27;20243;-61
2023/06/12 02:43:38;;;;;;;2.30;1.70;;;;;;;;;;5119104;27;20196;-61
2023/06/12 02:46:05;;;;;;;2.95;1.73;;;;;;;;;;5118588;27;20659;-61
2023/06/12 02:48:32;;;;;;;2.45;1.65;;;;;;;;;;5118931;27;20201;-59
2023/06/12 02:51:00;;;;;;;2.45;1.83;;;;;;;;;;5136832;27;20595;-61
2023/06/12 02:53:27;;;;;;;2.00;1.80;;;;;;;;;;5118525;27;20204;-61
2023/06/12 02:55:55;;;;;;;2.45;2.00;;;;;;;;;;5136334;27;20197;-61
2023/06/12 02:58:22;;;;;;;3.40;2.00;;;;;;;;;;5118610;27;20208;-61
2023/06/12 03:00:50;;;;;;;2.40;1.73;;;;;;;;;;5118456;27;20197;-61
2023/06/12 03:03:17;;;;;;;3.83;2.03;;;;;;;;;;5118406;27;20233;-61
2023/06/12 03:05:44;;;;;;;3.58;2.20;;;;;;;;;;5118409;27;20205;-61
2023/06/12 03:08:13;;;;;;;3.28;2.05;;;;;;;;;;5118303;27;20304;-61
2023/06/12 03:10:41;;;;;;;3.53;1.65;;;;;;;;;;5136370;27;20198;-61
2023/06/12 03:13:08;;;;;;;3.42;2.28;;;;;;;;;;5136636;27;20197;-62
2023/06/12 03:15:36;;;;;;;2.90;2.15;;;;;;;;;;5118416;27;20197;-61
2023/06/12 03:18:03;;;;;;;2.85;2.03;;;;;;;;;;5113844;27;20205;-61
2023/06/12 03:20:34;;;;;;;4.63;2.60;;;;;;;;;;5135291;27;20198;-61
2023/06/12 03:23:01;;;;;;;2.38;1.70;;;;;;;;;;5134867;27;20216;-61
2023/06/12 03:25:29;;;;;;;6.38;2.53;;;;;;;;;;5115905;27;20205;-62
2023/06/12 03:27:56;;;;;;;2.63;2.13;;;;;;;;;;5126803;27;20226;-61
2023/06/12 03:30:24;;;;;;;2.72;2.10;;;;;;;;;;5124439;27;20229;-61
2023/06/12 03:32:52;;;;;;;2.50;1.90;;;;;;;;;;5120529;27;20202;-61
2023/06/12 03:35:20;;;;;;;3.10;1.98;;;;;;;;;;5113334;28;20697;-62
2023/06/12 03:37:47;;;;;;;3.13;2.38;;;;;;;;;;5113213;28;20288;-62
2023/06/12 03:40:18;;;;;;;3.70;2.20;;;;;;;;;;5127000;27;20656;-61
2023/06/12 03:46:32;;;;;;;2.83;2.33;;;;;;;;;;5096762;28;20197;-61
2023/06/12 03:49:00;;;;;;;2.45;2.10;;;;;;;;;;5106626;27;20196;-61
2023/06/12 03:51:28;;;;;;;4.32;2.03;;;;;;;;;;5133385;27;20668;-61
2023/06/12 03:53:57;;;;;;;4.65;2.78;;;;;;;;;;5116984;27;20287;-61
2023/06/12 03:56:25;;;;;;;2.53;2.33;;;;;;;;;;5116956;27;20224;-62
2023/06/12 03:58:52;;;;;;;3.00;2.38;;;;;;;;;;5135736;27;20205;-62
2023/06/12 04:01:19;;;;;;;3.45;2.25;;;;;;;;;;5116254;27;20199;-62
2023/06/12 04:03:48;;;;;;;2.38;2.15;;;;;;;;;;5121718;27;20304;-61
2023/06/12 04:06:15;;;;;;;4.65;2.63;;;;;;;;;;5100740;28;20228;-62
2023/06/12 04:08:44;;;;;;;2.30;2.05;;;;;;;;;;5100616;28;20225;-62
2023/06/12 04:11:14;;;;;;;5.40;2.60;;;;;;;;;;5105408;28;20225;-62
2023/06/12 04:13:41;;;;;;;4.47;2.50;;;;;;;;;;5115548;27;20731;-63
2023/06/12 04:16:10;;;;;;;3.55;2.50;;;;;;;;;;5130114;27;20224;-62
2023/06/12 04:18:37;;;;;;;3.03;2.22;;;;;;;;;;5115834;27;20266;-61
2023/06/12 04:21:07;;;;;;;6.97;2.83;;;;;;;;;;5116056;27;20213;-61
2023/06/12 04:23:37;;;;;;;6.97;2.40;;;;;;;;;;5134163;27;20221;-61
2023/06/12 04:26:04;;;;;;;3.28;2.03;;;;;;;;;;5116552;27;20225;-62
2023/06/12 04:28:36;;;;;;;3.78;2.20;;;;;;;;;;5115902;27;20666;-61
2023/06/12 04:31:03;;;;;;;2.90;2.42;;;;;;;;;;5115949;27;20218;-61
2023/06/12 04:33:32;;;;;;;3.55;2.30;;;;;;;;;;5133879;27;20220;-63
2023/06/12 04:36:02;;;;;;;6.05;2.47;;;;;;;;;;5134370;27;20290;-61
2023/06/12 04:38:36;;;;;;;4.53;2.30;;;;;;;;;;5115076;27;20213;-63
2023/06/12 04:41:05;;;;;;;2.88;2.38;;;;;;;;;;5114964;27;20232;-66
2023/06/12 04:43:33;;;;;;;4.00;2.60;;;;;;;;;;5114432;27;20320;-64
2023/06/12 04:46:00;;;;;;;4.18;2.67;;;;;;;;;;5133206;27;20244;-64
2023/06/12 04:48:28;;;;;;;3.25;2.20;;;;;;;;;;5113217;27;20229;-64
2023/06/12 04:50:56;;;;;;;4.18;2.33;;;;;;;;;;5115331;27;20245;-65
2023/06/12 04:53:29;;;;;;;3.53;2.42;;;;;;;;;;5132877;27;20279;-64
2023/06/12 04:55:58;;;;;;;5.32;2.20;;;;;;;;;;5114410;27;20235;-65
2023/06/12 04:58:26;;;;;;;5.18;2.30;;;;;;;;;;5114497;28;20225;-65
2023/06/12 05:00:55;;;;;;;4.20;2.10;;;;;;;;;;5114753;28;20316;-64
2023/06/12 05:03:25;;;;;;;5.05;2.53;;;;;;;;;;5114651;27;20321;-64
2023/06/12 05:05:55;;;;;;;3.92;2.67;;;;;;;;;;5115708;28;20225;-63
2023/06/12 05:08:23;;;;;;;3.42;2.13;;;;;;;;;;5149677;27;20237;-64
2023/06/12 05:10:51;;;;;;;3.30;2.10;;;;;;;;;;5129705;28;20233;-66
2023/06/12 05:13:19;;;;;;;4.18;2.28;;;;;;;;;;5114482;28;20217;-65
2023/06/12 05:15:46;;;;;;;5.80;2.63;;;;;;;;;;5115137;28;20225;-65
2023/06/12 05:18:14;;;;;;;3.20;2.30;;;;;;;;;;5115338;27;20273;-64
2023/06/12 05:20:41;;;;;;;2.70;2.50;;;;;;;;;;5119063;27;20217;-66
2023/06/12 05:23:08;;;;;;;4.32;2.60;;;;;;;;;;5119471;27;20327;-65
2023/06/12 05:25:36;;;;;;;3.72;2.22;;;;;;;;;;5120165;27;20687;-65
2023/06/12 05:28:04;;;;;;;4.95;2.38;;;;;;;;;;5138282;27;20273;-65
2023/06/12 05:30:33;;;;;;;6.35;2.90;;;;;;;;;;5120549;27;20205;-65
2023/06/12 05:33:02;;;;;;;4.22;1.95;;;;;;;;;;5120200;27;20208;-64
2023/06/12 05:35:31;;;;;;;2.33;1.65;;;;;;;;;;5119982;27;20197;-66
2023/06/12 05:37:59;;;;;;;4.78;2.00;;;;;;;;;;5120164;27;20201;-65
2023/06/12 05:40:27;;;;;;;3.05;1.90;;;;;;;;;;5120256;27;20205;-65
2023/06/12 05:42:59;;;;;;;2.10;1.70;;;;;;;;;;5119903;27;20531;-64
2023/06/12 05:45:27;;;;;;;2.55;1.80;;;;;;;;;;5119928;27;20260;-65
2023/06/12 05:47:55;;;;;;;2.95;1.80;;;;;;;;;;5138093;27;20596;-65
2023/06/12 05:50:22;;;;;;;4.32;2.08;;;;;;;;;;5119619;27;20193;-65
2023/06/12 05:52:50;;;;;;;2.13;1.58;;;;;;;;;;5120038;27;20280;-65
2023/06/12 05:55:17;;;;;;;4.25;2.17;;;;;;;;;;5119868;27;20554;-64
2023/06/12 05:57:44;;;;;;;1.92;1.45;;;;;;;;;;5102868;27;20656;-65
2023/06/12 06:00:13;;;;;;;2.47;1.70;;;;;;;;;;5119625;27;20205;-65
2023/06/12 06:02:42;;;;;;;2.28;1.50;;;;;;;;;;5137884;27;20328;-65
2023/06/12 06:05:18;;;;;;;2.35;1.45;;;;;;;;;;5119738;27;20200;-65
2023/06/12 06:07:49;;;;;;;2.42;1.30;;;;;;;;;;5119609;27;20225;-65
2023/06/12 06:10:17;;;;;;;3.20;1.92;;;;;;;;;;5119271;27;20249;-65
2023/06/12 06:12:45;;;;;;;3.40;1.60;;;;;;;;;;5119431;27;20197;-64
2023/06/12 06:15:13;;;;;;;1.45;1.35;;;;;;;;;;5119238;27;20213;-65
2023/06/12 06:17:42;;;;;;;1.95;1.23;;;;;;;;;;5119273;27;20202;-65
2023/06/12 06:20:11;;;;;;;1.52;1.42;;;;;;;;;;5119413;27;20250;-65
2023/06/12 06:22:41;;;;;;;1.45;1.20;;;;;;;;;;5119353;27;20648;-64
2023/06/12 06:25:09;;;;;;;1.27;1.13;;;;;;;;;;5137459;27;20197;-65
2023/06/12 06:27:37;;;;;;;1.92;1.30;;;;;;;;;;5118980;27;20221;-66
2023/06/12 06:30:05;;;;;;;2.75;1.40;;;;;;;;;;5118549;27;20197;-66
2023/06/12 06:32:32;;;;;;;3.10;1.52;;;;;;;;;;5137622;27;20193;-66
2023/06/12 06:34:59;;;;;;;5.65;1.27;;;;;;;;;;5118964;27;20648;-69
2023/06/12 06:37:27;;;;;;;0.93;0.80;;;;;;;;;;5119234;27;20543;-65
2023/06/12 06:39:54;;;;;;;1.50;1.25;;;;;;;;;;5118729;27;20218;-66
2023/06/12 06:42:21;;;;;;;2.47;1.30;;;;;;;;;;5137064;27;20209;-65
2023/06/12 06:45:01;;;;;;;3.20;1.55;;;;;;;;;;5119012;27;20230;-65
2023/06/12 06:47:28;;;;;;;1.73;1.10;;;;;;;;;;5137251;27;20308;-64
2023/06/12 06:49:57;;;;;;;2.00;1.02;;;;;;;;;;5118578;27;20590;-64
2023/06/12 06:52:25;;;;;;;1.70;1.40;;;;;;;;;;5118539;27;20575;-64
2023/06/12 06:54:53;;;;;;;3.67;1.10;;;;;;;;;;5118422;27;20608;-64
2023/06/12 06:57:24;;;;;;;1.58;1.02;;;;;;;;;;5118565;27;20648;-64
2023/06/12 06:59:51;;;;;;;1.20;0.90;;;;;;;;;;5137001;27;20250;-63
2023/06/12 07:02:18;;;;;;;4.57;1.23;;;;;;;;;;5118620;27;20557;-64
2023/06/12 07:04:50;;;;;;;2.40;1.23;;;;;;;;;;5118342;27;20193;-63
2023/06/12 07:07:18;;;;;;;1.83;1.02;;;;;;;;;;5118207;27;20205;-65
2023/06/12 07:09:45;;;;;;;1.60;1.00;;;;;;;;;;5118408;27;20233;-63
2023/06/12 07:12:13;;;;;;;2.55;1.15;;;;;;;;;;5118474;27;20201;-64
2023/06/12 07:14:41;;;;;;;1.55;1.00;;;;;;;;;;5118262;27;20251;-64
2023/06/12 07:17:09;;;;;;;0.82;0.73;;;;;;;;;;5118350;27;20205;-63
2023/06/12 07:19:36;;;;;;;1.15;0.90;;;;;;;;;;5118054;27;20202;-63
2023/06/12 07:22:05;;;;;;;2.13;1.13;;;;;;;;;;5117944;27;20212;-64
2023/06/12 07:24:32;;;;;;;1.58;1.00;;;;;;;;;;5118296;27;20201;-63
2023/06/12 07:27:00;;;;;;;0.80;0.80;;;;;;;;;;5118004;27;20198;-64
2023/06/12 07:29:27;;;;;;;1.60;0.85;;;;;;;;;;5117670;27;20702;-62
2023/06/12 07:31:54;;;;;;;0.95;0.88;;;;;;;;;;5117958;27;20201;-64
2023/06/12 07:34:22;;;;;;;1.63;0.82;;;;;;;;;;5117683;27;20680;-64
2023/06/12 07:36:49;;;;;;;1.13;0.80;;;;;;;;;;5118014;27;20198;-64
2023/06/12 07:39:16;;;;;;;2.33;1.15;;;;;;;;;;5135881;27;20656;-64
2023/06/12 07:41:44;;;;;;;3.75;0.80;;;;;;;;;;5135247;27;20201;-65
2023/06/12 07:44:11;;;;;;;2.13;1.10;;;;;;;;;;5117269;27;20224;-66
2023/06/12 07:46:41;;;;;;;1.92;0.75;;;;;;;;;;5117721;27;20193;-66
2023/06/12 07:49:08;;;;;;;1.08;0.88;;;;;;;;;;5117371;27;20353;-64
2023/06/12 07:51:36;;;;;;;1.27;0.98;;;;;;;;;;5117353;27;20250;-65
2023/06/12 07:54:04;;;;;;;1.10;0.75;;;;;;;;;;5117566;27;20255;-65
2023/06/12 07:56:33;;;;;;;1.30;0.93;;;;;;;;;;5117431;27;20202;-66
2023/06/12 07:59:09;;;;;;;1.60;0.85;;;;;;;;;;5117249;27;20201;-66
2023/06/12 08:01:39;;;;;;;4.68;1.27;;;;;;;;;;5117065;27;20233;-65
2023/06/12 08:04:11;;;;;;;1.30;0.95;;;;;;;;;;5117338;27;20193;-66
2023/06/12 08:06:40;;;;;;;1.50;0.70;;;;;;;;;;5117398;27;20197;-67
2023/06/12 08:09:11;;;;;;;4.55;1.25;;;;;;;;;;5135164;27;20312;-68
2023/06/12 08:11:40;;;;;;;3.72;1.20;;;;;;;;;;5135284;27;20209;-65
2023/06/12 08:14:08;;;;;;;1.38;0.82;;;;;;;;;;5135178;27;20294;-65
2023/06/12 08:16:36;;;;;;;2.35;1.00;;;;;;;;;;5116903;27;20208;-66
2023/06/12 08:19:04;;;;;;;1.63;1.15;;;;;;;;;;5117015;27;20604;-66
2023/06/12 08:21:34;;;;;;;1.23;0.93;;;;;;;;;;5117068;27;20209;-65
2023/06/12 08:24:02;;;;;;;1.70;1.17;;;;;;;;;;5116746;27;20222;-66
2023/06/12 08:26:30;;;;;;;1.25;1.05;;;;;;;;;;5116765;27;20727;-65
2023/06/12 08:28:57;;;;;;;2.17;1.02;;;;;;;;;;5116851;27;20229;-65
2023/06/12 08:31:33;;;;;;;2.22;1.10;;;;;;;;;;5116768;27;20245;-67
2023/06/12 08:34:00;;;;;;;1.80;1.20;;;;;;;;;;5134968;27;20216;-68
2023/06/12 08:36:27;;;;;;;1.45;1.25;;;;;;;;;;5116320;27;20194;-67
2023/06/12 08:38:55;;;;;;;0.95;0.75;;;;;;;;;;5116668;27;20209;-66
2023/06/12 08:41:24;;;;;;;3.83;1.40;;;;;;;;;;5115771;27;20284;-66
2023/06/12 08:43:53;;;;;;;1.77;1.20;;;;;;;;;;5099692;27;20675;-66
2023/06/12 08:46:29;;;;;;;2.30;1.48;;;;;;;;;;5099448;27;20263;-66
2023/06/12 08:48:59;;;;;;;1.75;1.13;;;;;;;;;;5134545;27;20217;-65
2023/06/12 08:51:27;;;;;;;1.92;1.20;;;;;;;;;;5134600;27;20563;-65
2023/06/12 08:53:56;;;;;;;1.35;1.13;;;;;;;;;;5116546;27;20249;-65
2023/06/12 08:56:25;;;;;;;1.95;1.23;;;;;;;;;;5115759;27;20220;-65
2023/06/12 08:58:52;;;;;;;1.50;1.13;;;;;;;;;;5134503;27;20205;-64
2023/06/12 09:01:20;;;;;;;3.13;1.20;;;;;;;;;;5116187;28;20198;-66
2023/06/12 09:03:53;;;;;;;1.60;1.20;;;;;;;;;;5116612;27;20553;-66
2023/06/12 09:06:21;;;;;;;2.25;1.17;;;;;;;;;;5134313;27;20205;-66
2023/06/12 09:08:48;;;;;;;1.83;0.98;;;;;;;;;;5116455;28;20246;-66
2023/06/12 09:11:16;;;;;;;1.25;1.10;;;;;;;;;;5134154;28;20201;-66
2023/06/12 09:13:43;;;;;;;1.85;1.20;;;;;;;;;;5134516;28;20196;-66
2023/06/12 09:16:13;;;;;;;2.88;1.30;;;;;;;;;;5134415;28;20288;-66
2023/06/12 09:18:53;;;;;;;2.03;1.33;;;;;;;;;;5134372;28;20211;-67
2023/06/12 09:21:21;;;;;;;2.08;1.42;;;;;;;;;;5134041;28;20200;-67
2023/06/12 09:23:53;;;;;;;2.45;1.15;;;;;;;;;;5134273;28;20672;-66
2023/06/12 09:26:22;;;;;;;4.68;1.02;;;;;;;;;;5134738;28;20177;-67
2023/06/12 09:28:53;;;;;;;1.75;1.35;;;;;;;;;;5116154;28;20309;-66
2023/06/12 09:31:21;;;;;;;1.65;1.08;;;;;;;;;;5134595;28;20182;-66
2023/06/12 09:33:52;;;;;;;1.83;1.25;;;;;;;;;;5134465;28;20193;-67
2023/06/12 09:36:20;;;;;;;1.95;1.08;;;;;;;;;;5134291;28;20208;-67
2023/06/12 09:38:50;;;;;;;2.40;1.38;;;;;;;;;;5134248;28;20205;-67
2023/06/12 09:41:22;;;;;;;2.33;1.10;;;;;;;;;;5134215;28;20206;-65
2023/06/12 09:44:00;;;;;;;2.60;1.30;;;;;;;;;;5134452;28;20205;-67
2023/06/12 09:46:27;;;;;;;2.58;1.10;;;;;;;;;;5134394;28;20196;-66
2023/06/12 09:48:56;;;;;;;1.35;1.05;;;;;;;;;;5133962;28;20684;-67
2023/06/12 09:51:26;;;;;;;2.72;1.23;;;;;;;;;;5134323;28;20224;-65
2023/06/12 09:53:56;;;;;;;1.35;1.10;;;;;;;;;;5134072;28;20202;-66
2023/06/12 09:56:24;;;;;;;1.77;1.08;;;;;;;;;;5134081;28;20208;-65
2023/06/12 09:58:51;;;;;;;1.77;1.08;;;;;;;;;;5133985;28;20652;-65
2023/06/12 10:01:19;;;;;;;3.45;1.05;;;;;;;;;;5133802;28;20612;-66
2023/06/12 10:03:50;;;;;;;1.10;0.90;;;;;;;;;;5133963;28;20201;-66
2023/06/12 10:06:20;;;;;;;1.85;1.10;;;;;;;;;;5135874;27;20198;-66
2023/06/12 10:08:48;;;;;;;1.88;1.15;;;;;;;;;;5119838;27;20252;-66
2023/06/12 10:11:15;;;;;;;2.42;1.25;;;;;;;;;;5119798;27;20205;-66
2023/06/12 10:13:43;;;;;;;4.15;1.38;;;;;;;;;;5137613;27;20208;-66
2023/06/12 10:16:11;;;;;;;1.10;1.00;;;;;;;;;;5137573;27;20213;-66
2023/06/12 10:18:39;;;;;;;1.27;0.90;;;;;;;;;;5119442;27;20652;-65
2023/06/12 10:21:07;;;;;;;1.52;1.02;;;;;;;;;;5137156;27;20202;-66
2023/06/12 10:23:35;;;;;;;3.25;1.40;;;;;;;;;;5119531;27;20639;-66
2023/06/12 10:26:03;;;;;;;5.97;1.40;;;;;;;;;;5137160;27;20204;-68
2023/06/12 10:28:31;;;;;;;1.30;1.20;;;;;;;;;;5119501;27;20623;-66
2023/06/12 10:31:12;;;;;;;2.28;1.27;;;;;;;;;;5119364;27;20262;-66
2023/06/12 10:34:10;;;;;;;2.13;1.20;;;;;;;;;;5137203;27;20205;-64
2023/06/12 10:36:40;;;;;;;1.88;1.25;;;;;;;;;;5137412;27;20283;-67
2023/06/12 10:39:14;;;;;;;2.10;1.40;;;;;;;;;;5137009;27;20205;-66
2023/06/12 10:41:55;;;;;;;1.63;1.17;;;;;;;;;;5137143;27;20200;-67
2023/06/12 10:44:44;;;;;;;2.45;1.27;;;;;;;;;;5137062;27;20773;-68
2023/06/12 10:47:24;;;;;;;2.20;1.05;;;;;;;;;;5119557;27;20192;-65
2023/06/12 10:49:56;;;;;;;1.63;1.00;;;;;;;;;;5137019;27;20249;-66
2023/06/12 10:52:24;;;;;;;4.80;1.30;;;;;;;;;;5136986;27;20733;-66
2023/06/12 10:55:20;;;;;;;1.83;0.88;;;;;;;;;;5137062;27;20239;-65
2023/06/12 10:57:49;;;;;;;1.65;1.05;;;;;;;;;;5128870;27;20723;-67
2023/06/12 11:00:17;;;;;;;1.25;0.95;;;;;;;;;;5137125;27;20249;-66
2023/06/12 11:02:47;;;;;;;1.17;0.90;;;;;;;;;;5136448;27;20240;-65
2023/06/12 11:05:18;;;;;;;1.23;0.90;;;;;;;;;;5136684;27;20212;-66
2023/06/12 11:07:47;;;;;;;1.23;0.82;;;;;;;;;;5136924;27;20237;-65
2023/06/12 11:10:17;;;;;;;2.55;1.20;;;;;;;;;;5136362;27;20213;-66
2023/06/12 11:12:48;;;;;;;4.90;0.90;;;;;;;;;;5136632;27;20198;-66
2023/06/12 11:15:21;;;;;;;2.03;1.23;;;;;;;;;;5136419;27;20180;-66
2023/06/12 11:17:50;;;;;;;2.83;1.30;;;;;;;;;;5136136;27;20203;-67
2023/06/12 11:20:19;;;;;;;1.52;1.10;;;;;;;;;;5136272;27;20284;-67
2023/06/12 11:22:47;;;;;;;2.42;1.08;;;;;;;;;;5136453;27;20201;-66
2023/06/12 11:25:16;;;;;;;1.17;0.90;;;;;;;;;;5136564;27;20197;-66
2023/06/12 11:27:44;;;;;;;1.55;0.90;;;;;;;;;;5136440;27;20197;-65
2023/06/12 11:30:12;;;;;;;2.05;1.25;;;;;;;;;;5135980;27;20217;-67
2023/06/12 11:33:05;;;;;;;6.38;1.15;;;;;;;;;;5136134;27;20555;-67
2023/06/12 11:35:32;;;;;;;1.10;1.00;;;;;;;;;;5136562;27;20242;-66
2023/06/12 11:38:01;;;;;;;1.85;1.40;;;;;;;;;;5135949;27;20197;-68
2023/06/12 11:40:31;;;;;;;1.95;1.30;;;;;;;;;;5118763;27;20205;-66
2023/06/12 11:42:59;;;;;;;1.45;1.10;;;;;;;;;;5135812;27;20671;-67
2023/06/12 11:45:26;;;;;;;3.75;0.90;;;;;;;;;;5129707;27;20254;-68
2023/06/12 11:47:54;;;;;;;1.50;1.10;;;;;;;;;;5122299;27;20216;-66
2023/06/12 11:50:24;;;;;;;1.65;0.90;;;;;;;;;;5131383;27;20316;-63
2023/06/12 11:52:53;;;;;;;1.63;0.98;;;;;;;;;;5134163;27;20631;-62
2023/06/12 11:55:21;;;;;;;2.60;1.17;;;;;;;;;;5131856;27;20307;-64
2023/06/12 11:57:52;;;;;;;2.50;1.10;;;;;;;;;;5110313;28;20226;-65
2023/06/12 12:00:20;;;;;;;1.35;1.00;;;;;;;;;;5118897;27;20619;-65
2023/06/12 12:02:51;;;;;;;1.83;0.90;;;;;;;;;;5134466;27;20229;-68
2023/06/12 12:05:22;;;;;;;3.10;0.95;;;;;;;;;;5134314;27;20213;-68
2023/06/12 12:07:56;;;;;;;1.30;1.10;;;;;;;;;;5134474;27;20248;-65
2023/06/12 12:10:24;;;;;;;1.65;0.95;;;;;;;;;;5133894;27;20321;-65
2023/06/12 12:13:00;;;;;;;2.08;1.10;;;;;;;;;;5134493;27;20335;-62
2023/06/12 12:15:30;;;;;;;2.30;1.20;;;;;;;;;;5133572;27;20230;-61
2023/06/12 12:17:58;;;;;;;1.42;0.82;;;;;;;;;;5134134;27;20229;-61
2023/06/12 12:20:26;;;;;;;1.90;1.00;;;;;;;;;;5133751;27;20221;-67
2023/06/12 12:22:54;;;;;;;1.85;1.08;;;;;;;;;;5134403;27;20225;-59
2023/06/12 12:25:25;;;;;;;4.68;1.00;;;;;;;;;;5134719;27;20652;-64
2023/06/12 12:27:53;;;;;;;1.92;1.10;;;;;;;;;;5116566;27;20568;-66
2023/06/12 12:30:21;;;;;;;1.63;1.00;;;;;;;;;;5134400;27;20217;-63
2023/06/12 12:32:50;;;;;;;1.65;0.90;;;;;;;;;;5133074;27;20540;-64
2023/06/12 12:35:17;;;;;;;3.25;1.20;;;;;;;;;;5134025;27;20538;-70
2023/06/12 12:37:45;;;;;;;1.83;1.25;;;;;;;;;;5131012;27;20205;-61
2023/06/12 12:40:14;;;;;;;1.92;1.02;;;;;;;;;;5126907;27;20335;-65
2023/06/12 12:42:46;;;;;;;1.58;1.02;;;;;;;;;;5131273;27;20224;-66
2023/06/12 12:45:15;;;;;;;1.02;0.80;;;;;;;;;;5120315;27;20217;-66
2023/06/12 12:47:49;;;;;;;1.55;1.00;;;;;;;;;;5118689;27;20605;-66
2023/06/12 12:50:18;;;;;;;1.50;1.10;;;;;;;;;;5130287;27;20225;-66
2023/06/12 12:52:52;;;;;;;1.98;0.95;;;;;;;;;;5133152;27;20216;-65
2023/06/12 12:55:19;;;;;;;4.63;0.95;;;;;;;;;;5131210;27;20228;-67
2023/06/12 12:57:47;;;;;;;1.52;0.82;;;;;;;;;;5132444;27;20274;-67
2023/06/12 13:00:17;;;;;;;1.13;0.85;;;;;;;;;;5131826;27;20228;-67
2023/06/12 13:02:45;;;;;;;1.25;0.90;;;;;;;;;;5131894;27;20343;-68
2023/06/12 13:05:15;;;;;;;2.63;0.80;;;;;;;;;;5131936;27;20229;-67
2023/06/12 13:07:43;;;;;;;1.75;0.93;;;;;;;;;;5131942;27;20688;-69
2023/06/12 13:10:14;;;;;;;1.02;0.85;;;;;;;;;;5132412;28;20320;-67
2023/06/12 13:12:44;;;;;;;1.52;1.00;;;;;;;;;;5133715;28;20233;-69
2023/06/12 13:15:11;;;;;;;1.77;1.02;;;;;;;;;;5114770;28;20700;-68
2023/06/12 13:17:39;;;;;;;1.27;0.95;;;;;;;;;;5133764;28;20252;-69
2023/06/12 13:20:07;;;;;;;1.10;0.90;;;;;;;;;;5133664;28;20290;-69
2023/06/12 13:22:35;;;;;;;6.45;1.13;;;;;;;;;;5133119;28;20623;-68
2023/06/12 13:25:03;;;;;;;2.10;1.00;;;;;;;;;;5132741;28;20253;-67
2023/06/12 13:27:30;;;;;;;1.65;1.10;;;;;;;;;;5133068;28;20233;-69
2023/06/12 13:29:57;;;;;;;2.17;1.00;;;;;;;;;;5133371;27;20293;-67
2023/06/12 13:32:24;;;;;;;1.65;1.00;;;;;;;;;;5133521;28;20224;-65
2023/06/12 13:34:51;;;;;;;1.10;0.88;;;;;;;;;;5132845;28;20245;-67
2023/06/12 13:37:19;;;;;;;2.22;1.13;;;;;;;;;;5133500;28;20218;-64
2023/06/12 13:39:47;;;;;;;3.75;0.85;;;;;;;;;;5133125;27;20579;-67
2023/06/12 13:42:14;;;;;;;1.08;0.77;;;;;;;;;;5124289;27;20229;-66
2023/06/12 13:44:41;;;;;;;2.15;0.90;;;;;;;;;;5120441;27;20250;-66
2023/06/12 13:47:09;;;;;;;1.13;1.00;;;;;;;;;;5122081;27;20218;-68
2023/06/12 13:49:36;;;;;;;4.10;1.00;;;;;;;;;;5123792;27;20589;-65
2023/06/12 13:52:04;;;;;;;1.02;0.80;;;;;;;;;;5137293;27;20221;-63
2023/06/12 13:54:31;;;;;;;0.82;0.70;;;;;;;;;;5136108;27;20610;-63
2023/06/12 13:56:58;;;;;;;1.15;1.00;;;;;;;;;;5135192;27;20209;-64
2023/06/12 13:59:25;;;;;;;1.80;0.90;;;;;;;;;;5136196;27;20217;-63
2023/06/12 14:01:52;;;;;;;0.85;0.70;;;;;;;;;;5136595;27;20586;-67
2023/06/12 14:04:20;;;;;;;1.02;0.68;;;;;;;;;;5136969;27;20250;-62
2023/06/12 14:06:51;;;;;;;1.23;0.70;;;;;;;;;;5135579;27;20209;-62
2023/06/12 14:09:19;;;;;;;0.88;0.60;;;;;;;;;;5134862;27;20744;-62
2023/06/12 14:11:46;;;;;;;1.67;0.90;;;;;;;;;;5122673;27;20224;-63
2023/06/12 14:14:13;;;;;;;1.55;0.90;;;;;;;;;;5129590;27;20217;-67
2023/06/12 14:16:41;;;;;;;2.55;1.05;;;;;;;;;;5135336;27;20707;-63
2023/06/12 14:19:08;;;;;;;0.82;0.60;;;;;;;;;;5136866;27;20249;-64
2023/06/12 14:21:35;;;;;;;0.50;0.50;;;;;;;;;;5135994;27;20229;-60
2023/06/12 14:24:03;;;;;;;0.55;0.47;;;;;;;;;;5135724;27;20221;-64
2023/06/12 14:26:32;;;;;;;1.02;0.50;;;;;;;;;;5135575;27;20221;-69
2023/06/12 14:29:00;;;;;;;0.55;0.50;;;;;;;;;;5136057;27;20605;-65
2023/06/12 14:31:28;;;;;;;0.73;0.50;;;;;;;;;;5117417;27;20229;-62
2023/06/12 14:33:55;;;;;;;0.45;0.43;;;;;;;;;;5133422;27;20567;-62
2023/06/12 14:36:23;;;;;;;2.45;0.28;;;;;;;;;;5135375;27;20205;-63
2023/06/12 14:38:51;;;;;;;0.22;0.22;;;;;;;;;;5135787;27;20217;-68
2023/06/12 14:41:21;;;;;;;0.25;0.25;;;;;;;;;;5135537;27;20688;-70
2023/06/12 14:43:48;;;;;;;0.30;0.30;;;;;;;;;;5136216;27;20217;-67
2023/06/12 14:46:15;;;;;;;0.22;0.22;;;;;;;;;;5136150;27;20240;-68
2023/06/12 14:48:42;;;;;;;0.38;0.30;;;;;;;;;;5134284;27;20294;-67
2023/06/12 14:51:10;;;;;;;1.42;0.50;;;;;;;;;;5134859;27;20248;-67
2023/06/12 14:53:37;;;;;;;0.65;0.28;;;;;;;;;;5135261;27;20217;-67
2023/06/12 14:56:05;;;;;;;0.65;0.32;;;;;;;;;;5136007;27;20225;-67
2023/06/12 14:58:32;;;;;;;0.45;0.40;;;;;;;;;;5135867;27;20244;-68